createdAt,value
2023-01-11T00:00:25.509Z,5.61
2023-01-11T00:03:18.045Z,5.57
2023-01-11T00:05:47.056Z,5.56
2023-01-11T00:08:16.061Z,5.58
2023-01-11T00:10:45.093Z,5.58
2023-01-11T00:13:14.564Z,5.59
2023-01-11T00:15:43.697Z,5.60
2023-01-11T00:18:12.786Z,5.61
2023-01-11T00:20:42.719Z,5.62
2023-01-11T00:23:16.298Z,5.60
2023-01-11T00:25:45.283Z,5.58
2023-01-11T00:28:17.074Z,5.57
2023-01-11T00:30:49.163Z,5.59
2023-01-11T00:33:18.305Z,5.58
2023-01-11T00:35:47.271Z,5.58
2023-01-11T00:38:36.249Z,5.58
2023-01-11T00:41:25.582Z,5.54
2023-01-11T00:44:12.917Z,5.54
2023-01-11T00:47:00.054Z,5.51
2023-01-11T00:49:29.210Z,5.49
2023-01-11T00:52:00.910Z,5.46
2023-01-11T00:54:32.272Z,5.45
2023-01-11T00:57:01.460Z,5.41
2023-01-11T00:59:30.808Z,5.44
2023-01-11T01:02:00.052Z,5.45
2023-01-11T01:04:31.885Z,5.45
2023-01-11T01:07:00.905Z,5.45
2023-01-11T01:09:30.219Z,5.44
2023-01-11T01:12:02.047Z,5.44
2023-01-11T01:14:32.792Z,5.44
2023-01-11T01:17:07.056Z,5.42
2023-01-11T01:19:38.378Z,5.44
2023-01-11T01:22:07.545Z,5.42
2023-01-11T01:24:36.825Z,5.42
2023-01-11T01:27:06.113Z,5.42
2023-01-11T01:29:35.277Z,5.43
2023-01-11T01:32:18.632Z,5.42
2023-01-11T01:34:47.652Z,5.40
2023-01-11T01:37:16.881Z,5.41
2023-01-11T01:39:45.862Z,5.42
2023-01-11T01:42:16.542Z,5.41
2023-01-11T01:45:19.009Z,5.39
2023-01-11T01:47:51.657Z,5.34
2023-01-11T01:50:52.475Z,5.32
2023-01-11T01:53:24.889Z,5.27
2023-01-11T01:55:58.363Z,5.29
2023-01-11T01:58:35.270Z,5.28
2023-01-11T02:04:23.345Z,5.29
2023-01-11T02:06:59.604Z,5.26
2023-01-11T02:09:35.098Z,5.27
2023-01-11T02:12:05.917Z,5.28
2023-01-11T02:14:38.342Z,5.30
2023-01-11T02:17:08.434Z,5.33
2023-01-11T02:19:55.621Z,5.29
2023-01-11T02:23:09.831Z,5.31
2023-01-11T02:26:19.009Z,5.28
2023-01-11T02:29:13.895Z,5.22
2023-01-11T02:31:51.476Z,5.25
2023-01-11T02:34:33.055Z,5.28
2023-01-11T02:37:16.362Z,5.30
2023-01-11T02:39:57.325Z,5.29
2023-01-11T02:42:53.974Z,5.29
2023-01-11T02:45:39.763Z,5.28
2023-01-11T02:48:19.656Z,5.27
2023-01-11T02:50:57.770Z,5.28
2023-01-11T02:53:34.143Z,5.29
2023-01-11T02:56:06.867Z,5.29
2023-01-11T02:58:40.845Z,5.27
2023-01-11T03:01:11.014Z,5.26
2023-01-11T03:03:41.023Z,5.21
2023-01-11T03:06:17.007Z,5.16
2023-01-11T03:09:39.172Z,5.18
2023-01-11T03:16:08.509Z,5.08
2023-01-11T03:19:37.058Z,5.05
2023-01-11T03:22:12.219Z,5.00
2023-01-11T03:25:06.969Z,5.01
2023-01-11T03:28:18.614Z,4.98
2023-01-11T03:30:57.490Z,4.94
2023-01-11T03:33:35.025Z,4.92
2023-01-11T03:36:15.224Z,4.91
2023-01-11T03:38:51.713Z,4.89
2023-01-11T03:41:24.689Z,4.88
2023-01-11T03:43:57.018Z,4.85
2023-01-11T03:46:35.111Z,4.84
2023-01-11T03:49:22.903Z,4.80
2023-01-11T03:51:54.769Z,4.79
2023-01-11T03:54:52.720Z,4.78
2023-01-11T03:57:24.597Z,4.71
2023-01-11T03:59:54.525Z,4.68
2023-01-11T04:02:28.509Z,4.67
2023-01-11T04:04:57.458Z,4.65
2023-01-11T04:07:26.565Z,4.66
2023-01-11T04:09:56.472Z,4.65
2023-01-11T04:12:25.516Z,4.65
2023-01-11T04:14:54.611Z,4.64
2023-01-11T04:17:23.729Z,4.59
2023-01-11T04:19:52.951Z,4.56
2023-01-11T04:22:21.934Z,4.53
2023-01-11T04:24:51.056Z,4.50
2023-01-11T04:27:20.262Z,4.44
2023-01-11T04:29:51.986Z,4.40
2023-01-11T04:32:22.789Z,4.37
2023-01-11T04:34:52.246Z,4.32
2023-01-11T04:37:21.417Z,4.28
2023-01-11T04:40:18.806Z,4.23
2023-01-11T04:42:48.341Z,4.16
2023-01-11T04:45:20.208Z,4.15
2023-01-11T04:47:59.029Z,4.13
2023-01-11T04:50:28.785Z,4.09
2023-01-11T04:53:00.620Z,4.04
2023-01-11T04:55:29.962Z,3.97
2023-01-11T04:57:58.953Z,3.93
2023-01-11T05:00:28.141Z,3.89
2023-01-11T05:02:59.829Z,3.87
2023-01-11T05:05:33.453Z,3.83
2023-01-11T05:08:02.470Z,3.77
2023-01-11T05:10:32.736Z,3.74
2023-01-11T05:13:04.520Z,3.67
2023-01-11T05:15:35.423Z,3.64
2023-01-11T05:18:05.342Z,3.62
2023-01-11T05:20:34.489Z,3.59
2023-01-11T05:23:04.779Z,3.58
2023-01-11T05:25:35.058Z,3.54
2023-01-11T05:28:04.341Z,3.50
2023-01-11T05:30:36.218Z,3.47
2023-01-11T05:33:07.794Z,3.45
2023-01-11T05:35:48.898Z,3.42
2023-01-11T05:38:20.743Z,3.36
2023-01-11T05:40:55.899Z,3.31
2023-01-11T05:43:25.608Z,3.25
2023-01-11T05:46:02.327Z,3.20
2023-01-11T05:48:31.350Z,3.16
2023-01-11T05:51:01.571Z,3.09
2023-01-11T05:53:31.228Z,3.11
2023-01-11T05:56:01.296Z,3.09
2023-01-11T05:58:32.797Z,3.06
2023-01-11T06:01:02.012Z,3.03
2023-01-11T06:03:31.036Z,3.01
2023-01-11T06:06:00.782Z,3.00
2023-01-11T06:08:46.189Z,2.94
2023-01-11T06:11:30.544Z,2.87
2023-01-11T06:13:59.522Z,2.83
2023-01-11T06:17:00.655Z,2.82
2023-01-11T06:19:29.930Z,2.77
2023-01-11T06:21:59.125Z,2.78
2023-01-11T06:24:28.445Z,2.78
2023-01-11T06:26:57.537Z,2.76
2023-01-11T06:29:26.444Z,2.75
2023-01-11T06:32:00.788Z,2.72
2023-01-11T06:34:29.939Z,2.69
2023-01-11T06:36:58.963Z,2.66
2023-01-11T06:39:30.498Z,2.66
2023-01-11T06:42:20.713Z,2.66
2023-01-11T06:44:49.969Z,2.62
2023-01-11T06:47:19.163Z,2.61
2023-01-11T06:49:48.119Z,2.58
2023-01-11T06:52:24.509Z,2.58
2023-01-11T06:54:53.546Z,2.56
2023-01-11T06:57:23.072Z,2.56
2023-01-11T06:59:52.107Z,2.54
2023-01-11T07:02:21.193Z,2.54
2023-01-11T07:04:50.419Z,2.52
2023-01-11T07:07:41.645Z,2.51
2023-01-11T07:10:13.448Z,2.50
2023-01-11T07:12:42.573Z,2.47
2023-01-11T07:15:15.312Z,2.48
2023-01-11T07:17:44.530Z,2.47
2023-01-11T07:20:14.702Z,2.46
2023-01-11T07:23:07.663Z,2.47
2023-01-11T07:25:37.434Z,2.44
2023-01-11T07:28:08.627Z,2.44
2023-01-11T07:30:55.946Z,2.45
2023-01-11T07:33:26.107Z,2.44
2023-01-11T07:35:55.633Z,2.45
2023-01-11T07:38:24.690Z,2.46
2023-01-11T07:40:53.814Z,2.47
2023-01-11T07:43:23.326Z,2.50
2023-01-11T07:45:53.592Z,2.53
2023-01-11T07:48:25.710Z,2.56
2023-01-11T07:50:55.034Z,2.59
2023-01-11T07:53:25.914Z,2.63
2023-01-11T07:55:56.853Z,2.66
2023-01-11T07:58:34.318Z,2.67
2023-01-11T08:01:03.448Z,2.68
2023-01-11T08:03:32.611Z,2.68
2023-01-11T08:06:01.743Z,2.69
2023-01-11T08:08:30.776Z,2.70
2023-01-11T08:11:18.169Z,2.75
2023-01-11T08:14:07.341Z,2.76
2023-01-11T08:16:39.675Z,2.79
2023-01-11T08:19:08.938Z,2.82
2023-01-11T08:21:38.083Z,2.88
2023-01-11T08:24:07.749Z,2.93
2023-01-11T08:26:36.880Z,2.99
2023-01-11T08:29:06.031Z,3.02
2023-01-11T08:31:37.840Z,3.08
2023-01-11T08:34:09.074Z,3.14
2023-01-11T08:36:38.091Z,3.20
2023-01-11T08:39:07.168Z,3.27
2023-01-11T08:41:52.325Z,3.33
2023-01-11T08:44:33.347Z,3.36
2023-01-11T08:47:03.891Z,3.41
2023-01-11T08:49:33.065Z,3.46
2023-01-11T08:52:04.867Z,3.50
2023-01-11T08:54:33.918Z,3.55
2023-01-11T08:57:02.882Z,3.61
2023-01-11T08:59:31.991Z,3.66
2023-01-11T09:02:02.338Z,3.72
2023-01-11T09:04:33.348Z,3.75
2023-01-11T09:07:03.385Z,3.81
2023-01-11T09:09:32.318Z,3.88
2023-01-11T09:12:04.731Z,3.92
2023-01-11T09:14:34.601Z,3.96
2023-01-11T09:17:03.588Z,4.02
2023-01-11T09:19:33.123Z,4.10
2023-01-11T09:22:02.834Z,4.19
2023-01-11T09:24:31.862Z,4.27
2023-01-11T09:27:04.810Z,4.34
2023-01-11T09:29:37.007Z,4.41
2023-01-11T09:32:06.859Z,4.48
2023-01-11T09:34:35.839Z,4.53
2023-01-11T09:37:06.149Z,4.59
2023-01-11T09:39:36.468Z,4.67
2023-01-11T09:42:31.186Z,4.71
2023-01-11T09:45:06.601Z,4.75
2023-01-11T09:47:40.316Z,4.79
2023-01-11T09:50:18.043Z,4.81
2023-01-11T09:52:52.051Z,4.83
2023-01-11T09:55:29.771Z,4.82
2023-01-11T09:58:15.423Z,4.82
2023-01-11T10:01:01.387Z,4.86
2023-01-11T10:04:11.256Z,4.93
2023-01-11T10:06:51.131Z,4.92
2023-01-11T10:18:31.923Z,5.03
2023-01-11T10:19:18.482Z,5.07
2023-01-11T10:21:45.868Z,5.09
2023-01-11T10:24:24.236Z,5.15
2023-01-11T10:26:58.197Z,5.21
2023-01-11T10:29:49.740Z,5.23
2023-01-11T10:35:55.821Z,5.29
2023-01-11T10:38:45.939Z,5.32
2023-01-11T10:41:25.601Z,5.36
2023-01-11T10:44:11.198Z,5.37
2023-01-11T10:46:44.904Z,5.39
2023-01-11T10:49:36.569Z,5.40
2023-01-11T10:52:18.801Z,5.42
2023-01-11T10:54:54.022Z,5.46
2023-01-11T10:57:35.630Z,5.47
2023-01-11T11:00:22.205Z,5.41
2023-01-11T11:03:26.562Z,5.42
2023-01-11T11:06:01.796Z,5.42
2023-01-11T11:08:38.290Z,5.47
2023-01-11T11:11:12.572Z,5.52
2023-01-11T11:13:53.029Z,5.58
2023-01-11T11:16:46.292Z,5.61
2023-01-11T11:19:21.674Z,5.65
2023-01-11T11:21:52.084Z,5.69
2023-01-11T11:24:27.210Z,5.68
2023-01-11T11:27:01.143Z,5.68
2023-01-11T11:29:30.501Z,5.69
2023-01-11T11:32:01.361Z,5.66
2023-01-11T11:34:30.728Z,5.66
2023-01-11T11:37:00.951Z,5.64
2023-01-11T11:39:31.203Z,5.62
2023-01-11T11:42:15.200Z,5.64
2023-01-11T11:44:44.517Z,5.69
2023-01-11T11:47:16.643Z,5.72
2023-01-11T11:49:46.892Z,5.73
2023-01-11T11:52:18.027Z,5.71
2023-01-11T11:55:14.362Z,5.70
2023-01-11T11:57:55.415Z,5.70
2023-01-11T12:00:27.963Z,5.72
2023-01-11T12:03:00.289Z,5.72
2023-01-11T12:05:30.604Z,5.74
2023-01-11T12:08:00.476Z,5.77
2023-01-11T12:10:34.202Z,5.78
2023-01-11T12:13:04.757Z,5.76
2023-01-11T12:15:34.912Z,5.81
2023-01-11T12:18:27.541Z,5.82
2023-01-11T12:20:56.594Z,5.79
2023-01-11T12:23:26.491Z,5.81
2023-01-11T12:26:18.896Z,5.84
2023-01-11T12:28:59.529Z,5.85
2023-01-11T12:31:36.374Z,5.86
2023-01-11T12:34:18.151Z,5.89
2023-01-11T12:36:56.484Z,5.86
2023-01-11T12:39:33.948Z,5.85
2023-01-11T12:42:43.250Z,5.90
2023-01-11T12:45:21.880Z,5.90
2023-01-11T12:48:07.726Z,5.90
2023-01-11T12:50:53.983Z,5.88
2023-01-11T12:53:48.535Z,5.92
2023-01-11T12:56:46.041Z,5.91
2023-01-11T12:59:32.204Z,5.87
2023-01-11T13:02:35.947Z,5.89
2023-01-11T13:05:43.004Z,5.89
2023-01-11T13:08:19.128Z,5.89
2023-01-11T13:12:01.343Z,5.83
2023-01-11T13:15:32.933Z,5.82
2023-01-11T13:18:32.662Z,5.80
2023-01-11T13:21:25.357Z,5.82
2023-01-11T13:24:12.645Z,5.83
2023-01-11T13:26:53.128Z,5.85
2023-01-11T13:29:31.587Z,5.83
2023-01-11T13:32:05.379Z,5.83
2023-01-11T13:34:39.192Z,5.88
2023-01-11T13:37:14.357Z,5.90
2023-01-11T13:39:50.409Z,5.94
2023-01-11T13:42:24.905Z,5.96
2023-01-11T13:45:02.623Z,5.98
2023-01-11T13:50:28.275Z,5.96
2023-01-11T13:53:09.345Z,5.98
2023-01-11T13:55:52.578Z,5.99
2023-01-11T13:58:28.471Z,5.98
2023-01-11T14:01:06.831Z,5.95
2023-01-11T14:03:44.983Z,5.91
2023-01-11T14:06:34.422Z,5.88
2023-01-11T14:09:24.088Z,5.86
2023-01-11T14:12:04.734Z,5.88
2023-01-11T14:14:49.031Z,5.88
2023-01-11T14:17:43.104Z,5.85
2023-01-11T14:20:23.101Z,5.85
2023-01-11T14:23:03.438Z,5.84
2023-01-11T14:25:38.263Z,5.81
2023-01-11T14:28:31.147Z,5.80
2023-01-11T14:31:28.303Z,5.80
2023-01-11T14:34:29.650Z,5.79
2023-01-11T14:37:23.526Z,5.76
2023-01-11T14:40:05.978Z,5.74
2023-01-11T14:43:00.426Z,5.74
2023-01-11T14:45:46.044Z,5.72
2023-01-11T14:48:27.452Z,5.70
2023-01-11T14:51:09.761Z,5.73
2023-01-11T14:53:42.732Z,5.75
2023-01-11T14:56:36.390Z,5.76
2023-01-11T14:59:07.466Z,5.73
2023-01-11T15:02:22.311Z,5.76
2023-01-11T15:05:26.465Z,5.74
2023-01-11T15:08:19.835Z,5.73
2023-01-11T15:10:55.654Z,5.71
2023-01-11T15:13:27.319Z,5.72
2023-01-11T15:16:28.424Z,5.69
2023-01-11T15:18:59.624Z,5.69
2023-01-11T15:21:28.830Z,5.68
2023-01-11T15:23:59.211Z,5.69
2023-01-11T15:26:28.777Z,5.69
2023-01-11T15:28:59.458Z,5.71
2023-01-11T15:31:35.745Z,5.73
2023-01-11T15:34:25.335Z,5.71
2023-01-11T15:37:23.921Z,5.66
2023-01-11T15:39:59.082Z,5.62
2023-01-11T15:43:00.568Z,5.62
2023-01-11T15:46:37.168Z,5.63
2023-01-11T15:49:39.029Z,5.56
2023-01-11T15:52:40.264Z,5.55
2023-01-11T15:55:40.087Z,5.55
2023-01-11T15:58:50.114Z,5.53
2023-01-11T16:01:24.162Z,5.52
2023-01-11T16:04:25.317Z,5.54
2023-01-11T16:07:01.879Z,5.54
2023-01-11T16:10:00.202Z,5.53
2023-01-11T16:12:51.940Z,5.52
2023-01-11T16:15:34.837Z,5.50
2023-01-11T16:18:14.005Z,5.52
2023-01-11T16:20:56.039Z,5.50
2023-01-11T16:23:25.285Z,5.50
2023-01-11T16:25:57.405Z,5.52
2023-01-11T16:28:31.543Z,5.54
2023-01-11T16:31:03.887Z,5.55
2023-01-11T16:33:34.372Z,5.52
2023-01-11T16:36:11.318Z,5.53
2023-01-11T16:38:47.400Z,5.53
2023-01-11T16:41:17.515Z,5.54
2023-01-11T16:43:53.923Z,5.53
2023-01-11T16:47:06.361Z,5.56
2023-01-11T16:49:36.533Z,5.50
2023-01-11T16:52:39.304Z,5.52
2023-01-11T16:55:22.286Z,5.52
2023-01-11T16:57:56.816Z,5.55
2023-01-11T17:00:35.501Z,5.58
2023-01-11T17:03:20.849Z,5.60
2023-01-11T17:06:02.045Z,5.60
2023-01-11T17:08:34.378Z,5.60
2023-01-11T17:11:13.756Z,5.61
2023-01-11T17:14:14.103Z,5.59
2023-01-11T17:16:47.714Z,5.59
2023-01-11T17:19:18.951Z,5.60
2023-01-11T17:21:52.386Z,5.61
2023-01-11T17:24:25.241Z,5.64
2023-01-11T17:26:57.747Z,5.61
2023-01-11T17:29:30.848Z,5.61
2023-01-11T17:32:02.130Z,5.60
2023-01-11T17:34:36.816Z,5.63
2023-01-11T17:37:12.290Z,5.62
2023-01-11T17:39:44.979Z,5.63
2023-01-11T17:42:34.653Z,5.64
2023-01-11T17:45:16.895Z,5.63
2023-01-11T17:47:48.034Z,5.62
2023-01-11T17:50:39.564Z,5.61
2023-01-11T17:53:16.060Z,5.59
2023-01-11T17:55:53.342Z,5.61
2023-01-11T17:58:25.950Z,5.62
2023-01-11T18:01:19.956Z,5.59
2023-01-11T18:03:51.797Z,5.56
2023-01-11T18:06:27.593Z,5.57
2023-01-11T18:08:58.840Z,5.57
2023-01-11T18:11:29.854Z,5.59
2023-01-11T18:14:01.654Z,5.58
2023-01-11T18:16:31.384Z,5.59
2023-01-11T18:19:01.009Z,5.57
2023-01-11T18:21:41.499Z,5.62
2023-01-11T18:24:33.873Z,5.64
2023-01-11T18:27:28.715Z,5.63
2023-01-11T18:30:01.739Z,5.63
2023-01-11T18:32:53.136Z,5.63
2023-01-11T18:35:23.780Z,5.64
2023-01-11T18:37:53.018Z,5.65
2023-01-11T18:40:22.637Z,5.67
2023-01-11T18:42:53.488Z,5.66
2023-01-11T18:45:24.329Z,5.61
2023-01-11T18:47:53.453Z,5.60
2023-01-11T18:50:23.399Z,5.64
2023-01-11T18:52:52.546Z,5.70
2023-01-11T18:55:21.786Z,5.73
2023-01-11T18:57:51.173Z,5.71
2023-01-11T19:00:21.346Z,5.72
2023-01-11T19:05:27.837Z,5.76
2023-01-11T19:07:57.193Z,5.77
2023-01-11T19:10:26.806Z,5.77
2023-01-11T19:12:59.803Z,5.76
2023-01-11T19:15:29.594Z,5.73
2023-01-11T19:18:01.999Z,5.70
2023-01-11T19:23:05.906Z,5.65
2023-01-11T19:25:35.350Z,5.60
2023-01-11T19:28:05.478Z,5.61
2023-01-11T19:30:34.750Z,5.62
2023-01-11T19:33:04.302Z,5.62
2023-01-11T19:35:33.600Z,5.60
2023-01-11T19:38:03.068Z,5.58
2023-01-11T19:40:32.411Z,5.57
2023-01-11T19:43:01.795Z,5.59
2023-01-11T19:48:32.446Z,5.60
2023-01-11T19:51:07.947Z,5.57
2023-01-11T19:53:37.611Z,5.56
2023-01-11T19:56:08.666Z,5.56
2023-01-11T19:58:38.687Z,5.57
2023-01-11T20:01:12.885Z,5.54
2023-01-11T20:03:42.944Z,5.52
2023-01-11T20:06:12.384Z,5.51
2023-01-11T20:08:44.556Z,5.51
2023-01-11T20:11:17.385Z,5.50
2023-01-11T20:13:50.199Z,5.49
2023-01-11T20:16:24.633Z,5.51
2023-01-11T20:18:55.691Z,5.48
2023-01-11T20:21:30.972Z,5.47
2023-01-11T20:24:01.953Z,5.45
2023-01-11T20:26:36.326Z,5.49
2023-01-11T20:29:05.808Z,5.50
2023-01-11T20:31:35.419Z,5.52
2023-01-11T20:34:07.121Z,5.57
2023-01-11T20:36:36.584Z,5.57
2023-01-11T20:39:08.452Z,5.59
2023-01-11T20:41:47.117Z,5.57
2023-01-11T20:44:19.502Z,5.56
2023-01-11T20:46:53.210Z,5.60
2023-01-11T20:49:24.568Z,5.63
2023-01-11T20:51:56.065Z,5.63
2023-01-11T20:54:39.889Z,5.63
2023-01-11T20:57:11.639Z,5.61
2023-01-11T20:59:45.057Z,5.61
2023-01-11T21:02:15.044Z,5.64
2023-01-11T21:04:44.181Z,5.69
2023-01-11T21:07:33.113Z,5.71
2023-01-11T21:10:04.529Z,5.68
2023-01-11T21:12:33.863Z,5.69
2023-01-11T21:18:09.044Z,5.66
2023-01-11T21:20:38.703Z,5.68
2023-01-11T21:23:08.081Z,5.72
2023-01-11T21:25:37.605Z,5.76
2023-01-11T21:28:07.117Z,5.75
2023-01-11T21:30:39.132Z,5.79
2023-01-11T21:33:08.626Z,5.80
2023-01-11T21:35:38.040Z,5.83
2023-01-11T21:38:07.216Z,5.85
2023-01-11T21:40:36.867Z,5.83
2023-01-11T21:43:07.175Z,5.81
2023-01-11T21:45:36.599Z,5.81
2023-01-11T21:48:10.450Z,5.82
2023-01-11T21:50:39.658Z,5.85
2023-01-11T21:53:09.051Z,5.88
2023-01-11T21:55:38.257Z,5.88
2023-01-11T21:58:07.976Z,5.87
2023-01-11T22:00:37.149Z,5.87
2023-01-11T22:03:06.744Z,5.87
2023-01-11T22:05:36.310Z,5.87
2023-01-11T22:08:05.853Z,5.90
2023-01-11T22:10:36.053Z,5.88
2023-01-11T22:13:05.459Z,5.90
2023-01-11T22:15:34.944Z,5.95
2023-01-11T22:18:04.418Z,5.95
2023-01-11T22:20:35.185Z,6.00
2023-01-11T22:23:04.743Z,6.01
2023-01-11T22:25:36.175Z,6.01
2023-01-11T22:28:06.204Z,6.01
2023-01-11T22:30:35.448Z,6.03
2023-01-11T22:33:06.698Z,6.05
2023-01-11T22:35:35.934Z,6.05
2023-01-11T22:38:05.283Z,6.07
2023-01-11T22:40:34.468Z,6.09
2023-01-11T22:43:03.608Z,6.12
2023-01-11T22:45:32.880Z,6.15
2023-01-11T22:48:02.207Z,6.16
2023-01-11T22:50:31.469Z,6.17
2023-01-11T22:53:03.393Z,6.17
2023-01-11T22:55:33.995Z,6.17
2023-01-11T22:58:03.407Z,6.16
2023-01-11T23:00:32.747Z,6.20
2023-01-11T23:03:02.586Z,6.23
2023-01-11T23:05:32.039Z,6.23
2023-01-11T23:08:01.334Z,6.24
2023-01-11T23:10:30.615Z,6.26
2023-01-11T23:13:18.260Z,6.31
2023-01-11T23:15:55.155Z,6.27
2023-01-11T23:18:24.792Z,6.28
2023-01-11T23:20:54.023Z,6.32
2023-01-11T23:23:27.849Z,6.32
2023-01-11T23:25:57.899Z,6.35
2023-01-11T23:28:30.119Z,6.38
2023-01-11T23:30:59.806Z,6.37
2023-01-11T23:33:29.525Z,6.40
2023-01-11T23:35:59.451Z,6.39
2023-01-11T23:38:31.986Z,6.41
2023-01-11T23:41:25.231Z,6.42
2023-01-11T23:43:54.682Z,6.42
2023-01-11T23:46:42.500Z,6.41
2023-01-11T23:49:13.870Z,6.41
2023-01-11T23:51:43.613Z,6.42
2023-01-11T23:54:13.571Z,6.40
2023-01-11T23:56:43.847Z,6.40
2023-01-11T23:59:13.339Z,6.37
